Time;durP1;ratioP1;P1;durP2;ratioP2;P2;SDS_P1;SDS_P2;PMS_P1;PMS_P2;Temp;Humidity;BMP_temperature;BMP_pressure;BME280_temperature;BME280_humidity;BME280_pressure;Samples;Min_cycle;Max_cycle;Signal;HPM_P1;HPM_P2
2023/05/18 00:00:15;;;;;;;9.97;3.83;;;8.10;99.90;;;;;;5085976;28;20240;-68
2023/05/18 00:02:42;;;;;;;9.90;3.60;;;8.00;99.90;;;;;;5069271;28;20186;-67
2023/05/18 00:05:10;;;;;;;10.93;3.97;;;7.90;99.90;;;;;;5081902;28;20324;-68
2023/05/18 00:07:40;;;;;;;7.67;3.73;;;7.80;99.90;;;;;;5084089;28;20248;-69
2023/05/18 00:10:07;;;;;;;9.87;4.00;;;7.70;99.90;;;;;;5064553;28;20202;-67
2023/05/18 00:12:35;;;;;;;7.73;3.83;;;7.70;99.90;;;;;;5060428;28;20773;-68
2023/05/18 00:15:02;;;;;;;10.47;3.63;;;7.70;99.90;;;;;;5056780;28;20198;-71
2023/05/18 00:17:30;;;;;;;12.07;4.30;;;7.70;99.90;;;;;;5064849;28;20190;-68
2023/05/18 00:19:57;;;;;;;6.73;3.73;;;7.60;99.90;;;;;;5068597;28;20217;-72
2023/05/18 00:22:25;;;;;;;17.00;4.50;;;7.70;99.90;;;;;;5079856;28;20678;-69
2023/05/18 00:24:52;;;;;;;12.40;4.10;;;7.60;99.90;;;;;;5070352;28;20200;-69
2023/05/18 00:27:19;;;;;;;6.27;3.40;;;7.60;99.90;;;;;;5078144;28;20214;-69
2023/05/18 00:29:46;;;;;;;13.27;4.30;;;7.80;99.90;;;;;;5063926;28;20251;-69
2023/05/18 00:32:13;;;;;;;11.80;4.10;;;7.80;99.90;;;;;;5086783;28;20194;-69
2023/05/18 00:34:40;;;;;;;10.73;4.07;;;7.70;99.90;;;;;;5069682;28;20198;-69
2023/05/18 00:37:07;;;;;;;10.00;4.23;;;7.80;99.90;;;;;;5067562;28;20194;-68
2023/05/18 00:39:34;;;;;;;10.27;4.60;;;7.80;99.90;;;;;;5079403;28;20210;-68
2023/05/18 00:42:02;;;;;;;7.27;3.97;;;7.70;99.90;;;;;;5055245;28;20251;-68
2023/05/18 00:44:28;;;;;;;12.00;4.83;;;7.60;99.90;;;;;;5057400;28;20255;-68
2023/05/18 00:46:55;;;;;;;7.47;4.10;;;7.60;99.90;;;;;;5080854;28;20206;-68
2023/05/18 00:49:22;;;;;;;10.00;4.27;;;7.60;99.90;;;;;;5064828;28;20252;-68
2023/05/18 00:51:53;;;;;;;9.13;3.80;;;7.60;99.90;;;;;;5066352;28;20205;-66
2023/05/18 00:54:20;;;;;;;12.57;4.77;;;7.80;99.90;;;;;;5063925;28;20201;-66
2023/05/18 00:56:47;;;;;;;7.70;3.33;;;7.90;99.90;;;;;;5080943;28;20651;-68
2023/05/18 00:59:14;;;;;;;8.33;4.10;;;7.70;99.90;;;;;;5063664;28;20191;-69
2023/05/18 01:01:45;;;;;;;7.30;4.00;;;7.60;99.90;;;;;;5071369;28;20553;-69
2023/05/18 01:04:15;;;;;;;9.57;4.13;;;7.60;99.90;;;;;;5059480;28;20711;-68
2023/05/18 01:06:42;;;;;;;8.07;3.60;;;7.50;99.90;;;;;;5062707;28;20199;-68
2023/05/18 01:09:11;;;;;;;8.90;3.93;;;7.50;99.90;;;;;;5046659;28;20301;-68
2023/05/18 01:12:11;;;;;;;8.97;4.23;;;7.50;99.90;;;;;;5082154;28;20202;-69
2023/05/18 01:14:57;;;;;;;11.90;4.37;;;7.30;99.90;;;;;;5080449;28;20203;-68
2023/05/18 01:17:42;;;;;;;10.07;4.67;;;7.30;99.90;;;;;;5049308;28;20686;-68
2023/05/18 01:20:44;;;;;;;10.43;4.57;;;7.20;99.90;;;;;;5078278;28;20305;-68
2023/05/18 01:23:34;;;;;;;15.80;4.97;;;7.20;99.90;;;;;;5030755;28;20228;-68
2023/05/18 01:26:16;;;;;;;10.60;4.63;;;7.20;99.90;;;;;;5048391;28;20632;-68
2023/05/18 01:28:45;;;;;;;11.13;4.37;;;7.10;99.90;;;;;;5062742;28;20263;-67
2023/05/18 01:31:14;;;;;;;10.67;4.20;;;7.00;99.90;;;;;;5044229;28;20229;-67
2023/05/18 01:33:43;;;;;;;11.63;5.37;;;6.90;99.90;;;;;;5062184;28;20263;-67
2023/05/18 01:36:10;;;;;;;11.57;4.87;;;6.70;99.90;;;;;;5063525;28;20733;-68
2023/05/18 01:38:39;;;;;;;8.60;4.87;;;6.60;99.90;;;;;;5052531;28;20651;-68
2023/05/18 01:41:22;;;;;;;9.37;5.20;;;6.50;99.90;;;;;;5087310;28;20794;-69
2023/05/18 01:44:05;;;;;;;11.07;5.17;;;6.50;99.90;;;;;;5067788;28;20679;-68
2023/05/18 01:46:53;;;;;;;8.73;4.27;;;6.40;99.90;;;;;;5058628;28;20187;-68
2023/05/18 01:49:23;;;;;;;8.57;4.30;;;6.40;99.90;;;;;;5084759;28;20203;-68
2023/05/18 01:51:52;;;;;;;9.80;4.73;;;6.50;99.90;;;;;;5061715;28;20194;-69
2023/05/18 01:54:21;;;;;;;9.17;4.53;;;6.50;99.90;;;;;;5058071;28;20191;-69
2023/05/18 01:56:51;;;;;;;11.60;4.93;;;6.50;99.90;;;;;;5079669;28;20183;-69
2023/05/18 01:59:18;;;;;;;10.57;4.37;;;6.50;99.90;;;;;;5070272;28;20205;-69
2023/05/18 02:01:45;;;;;;;9.73;4.90;;;6.60;99.90;;;;;;5068665;28;20221;-69
2023/05/18 02:04:14;;;;;;;8.93;4.43;;;6.70;99.90;;;;;;5058948;28;20227;-69
2023/05/18 02:06:41;;;;;;;8.40;4.20;;;6.90;99.90;;;;;;5065001;28;20199;-68
2023/05/18 02:09:08;;;;;;;11.73;4.03;;;7.00;99.90;;;;;;5068046;28;20193;-68
2023/05/18 02:11:35;;;;;;;10.73;4.50;;;7.10;99.90;;;;;;5069095;28;20221;-68
2023/05/18 02:14:02;;;;;;;11.90;4.77;;;7.10;99.90;;;;;;5073077;28;20239;-68
2023/05/18 02:16:29;;;;;;;7.30;4.10;;;7.20;99.90;;;;;;5061126;28;20659;-68
2023/05/18 02:18:57;;;;;;;7.47;4.27;;;7.10;99.90;;;;;;5067872;28;20271;-68
2023/05/18 02:21:24;;;;;;;11.93;4.50;;;7.20;99.90;;;;;;5068479;28;20773;-65
2023/05/18 02:23:52;;;;;;;11.03;4.37;;;7.00;99.90;;;;;;5078951;28;21206;-66
2023/05/18 02:26:19;;;;;;;13.87;5.00;;;7.00;99.90;;;;;;5083086;28;20190;-66
2023/05/18 02:28:51;;;;;;;9.67;4.17;;;6.90;99.90;;;;;;5079937;28;20210;-64
2023/05/18 02:31:18;;;;;;;6.77;4.23;;;6.80;99.90;;;;;;5085201;28;20827;-63
2023/05/18 02:33:45;;;;;;;11.13;4.77;;;6.70;99.90;;;;;;5084195;28;20225;-64
2023/05/18 02:36:13;;;;;;;12.90;4.93;;;6.70;99.90;;;;;;5072462;28;20593;-67
2023/05/18 02:38:42;;;;;;;9.63;4.47;;;6.80;99.90;;;;;;5063432;28;20587;-65
2023/05/18 02:41:10;;;;;;;8.27;4.57;;;6.60;99.90;;;;;;5059386;28;20577;-64
2023/05/18 02:43:37;;;;;;;14.87;5.03;;;6.40;99.90;;;;;;5061994;28;20190;-65
2023/05/18 02:46:05;;;;;;;12.03;5.37;;;6.30;99.90;;;;;;5070476;28;20247;-68
2023/05/18 02:48:33;;;;;;;7.43;4.20;;;6.30;99.90;;;;;;5064380;28;20248;-68
2023/05/18 02:50:59;;;;;;;7.80;4.47;;;6.30;99.90;;;;;;5065053;28;20202;-68
2023/05/18 02:53:26;;;;;;;8.73;4.90;;;6.30;99.90;;;;;;5078685;28;20285;-67
2023/05/18 02:56:02;;;;;;;12.13;5.00;;;6.20;99.90;;;;;;5070384;28;20201;-69
2023/05/18 02:58:39;;;;;;;8.47;4.03;;;6.30;99.90;;;;;;5076683;28;20186;-69
2023/05/18 03:01:13;;;;;;;9.40;4.87;;;6.50;99.90;;;;;;5071796;28;20261;-69
2023/05/18 03:03:46;;;;;;;13.63;5.37;;;6.50;99.90;;;;;;5077742;28;20241;-71
2023/05/18 03:06:14;;;;;;;8.73;4.80;;;6.50;99.90;;;;;;5066090;28;20286;-71
2023/05/18 03:08:42;;;;;;;6.73;4.23;;;6.30;99.90;;;;;;5068810;28;20205;-70
2023/05/18 03:11:11;;;;;;;11.37;5.07;;;6.20;99.90;;;;;;5065404;28;20194;-71
2023/05/18 03:13:38;;;;;;;10.43;5.73;;;6.30;99.90;;;;;;5065925;28;20255;-70
2023/05/18 03:16:05;;;;;;;8.30;4.97;;;6.20;99.90;;;;;;5066897;28;20700;-71
2023/05/18 03:18:33;;;;;;;10.33;4.90;;;6.10;99.90;;;;;;5063254;28;20586;-70
2023/05/18 03:21:04;;;;;;;8.60;5.57;;;6.10;99.90;;;;;;5068146;28;20214;-70
2023/05/18 03:23:31;;;;;;;7.70;4.80;;;6.10;99.90;;;;;;5073113;28;20191;-71
2023/05/18 03:25:58;;;;;;;12.17;5.33;;;6.00;99.90;;;;;;5066911;28;20594;-70
2023/05/18 03:28:28;;;;;;;12.83;5.70;;;6.00;99.90;;;;;;5062413;28;20549;-70
2023/05/18 03:30:55;;;;;;;6.20;4.27;;;6.00;99.90;;;;;;5066482;28;20195;-70
2023/05/18 03:33:22;;;;;;;7.20;4.13;;;6.50;99.90;;;;;;5075368;28;20202;-69
2023/05/18 03:35:51;;;;;;;26.20;15.23;;;7.50;99.90;;;;;;5082876;28;20198;-68
2023/05/18 03:38:18;;;;;;;30.33;15.73;;;8.30;99.90;;;;;;5062831;28;20691;-68
2023/05/18 03:40:51;;;;;;;44.60;29.23;;;8.70;99.90;;;;;;5056202;28;20317;-68
2023/05/18 03:43:18;;;;;;;67.47;45.43;;;8.60;99.90;;;;;;5055934;28;20198;-68
2023/05/18 03:45:46;;;;;;;20.53;13.47;;;8.80;99.90;;;;;;5057540;28;20199;-68
2023/05/18 03:48:13;;;;;;;27.60;17.63;;;8.70;99.90;;;;;;5064862;28;20191;-68
2023/05/18 03:50:40;;;;;;;24.47;15.20;;;8.60;99.90;;;;;;5070842;28;20825;-69
2023/05/18 03:53:08;;;;;;;18.53;12.23;;;8.50;99.90;;;;;;5063379;28;20332;-69
2023/05/18 03:55:35;;;;;;;21.67;11.07;;;8.30;99.90;;;;;;5081775;28;20190;-68
2023/05/18 03:58:02;;;;;;;10.13;6.60;;;8.20;99.90;;;;;;5086441;28;20228;-68
2023/05/18 04:00:31;;;;;;;13.57;5.63;;;8.30;99.90;;;;;;5070332;28;20222;-67
2023/05/18 04:02:59;;;;;;;7.70;4.73;;;8.20;99.90;;;;;;5067901;28;20673;-65
2023/05/18 04:05:27;;;;;;;12.77;5.93;;;8.20;99.90;;;;;;5065414;28;20224;-67
2023/05/18 04:07:56;;;;;;;19.03;11.03;;;8.20;99.90;;;;;;5049715;28;20199;-70
2023/05/18 04:10:23;;;;;;;20.70;13.70;;;8.20;99.90;;;;;;5061777;28;20621;-67
2023/05/18 04:12:50;;;;;;;23.53;16.60;;;8.20;99.90;;;;;;5081988;28;20727;-67
2023/05/18 04:15:17;;;;;;;24.53;16.93;;;8.50;99.90;;;;;;5074938;28;20684;-67
2023/05/18 04:17:44;;;;;;;31.67;21.27;;;8.40;99.90;;;;;;5083304;28;20661;-69
2023/05/18 04:20:13;;;;;;;47.90;35.50;;;8.90;99.90;;;;;;5068012;28;20222;-69
2023/05/18 04:22:46;;;;;;;19.20;14.17;;;8.90;99.90;;;;;;5062179;28;22626;-67
2023/05/18 04:25:14;;;;;;;16.67;11.07;;;9.00;99.90;;;;;;5062811;28;20190;-69
2023/05/18 04:27:44;;;;;;;13.30;9.20;;;9.30;99.90;;;;;;5070251;28;20284;-67
2023/05/18 04:30:12;;;;;;;18.00;11.43;;;10.10;99.90;;;;;;5058783;28;20198;-69
2023/05/18 04:32:41;;;;;;;23.77;15.97;;;10.60;99.90;;;;;;5066869;28;20266;-65
2023/05/18 04:35:10;;;;;;;16.33;11.53;;;10.90;99.90;;;;;;5085345;28;20764;-70
2023/05/18 04:37:39;;;;;;;19.60;12.53;;;11.10;99.90;;;;;;5052644;28;20214;-69
2023/05/18 04:40:15;;;;;;;24.93;16.70;;;11.40;99.90;;;;;;5059122;28;20194;-70
2023/05/18 04:42:46;;;;;;;23.20;11.07;;;11.90;99.90;;;;;;5061402;28;20191;-68
2023/05/18 04:45:19;;;;;;;14.97;8.33;;;12.40;99.90;;;;;;5060788;28;20194;-70
2023/05/18 04:47:52;;;;;;;20.10;12.13;;;12.80;99.90;;;;;;5071056;28;20533;-71
2023/05/18 04:50:24;;;;;;;23.23;16.67;;;12.90;99.90;;;;;;5066361;28;20225;-71
2023/05/18 04:52:52;;;;;;;13.13;9.80;;;13.20;99.90;;;;;;5060870;28;20225;-70
2023/05/18 04:55:24;;;;;;;17.77;10.33;;;13.30;99.90;;;;;;5060349;28;20200;-70
2023/05/18 04:57:59;;;;;;;16.77;8.60;;;13.50;99.90;;;;;;5060440;28;20201;-71
2023/05/18 05:00:28;;;;;;;17.15;9.32;;;13.50;99.90;;;;;;5063392;28;20194;-69
2023/05/18 05:02:57;;;;;;;8.85;5.38;;;13.80;99.90;;;;;;5080427;28;20202;-71
2023/05/18 05:05:26;;;;;;;9.75;4.90;;;13.90;99.90;;;;;;5078487;28;20236;-70
2023/05/18 05:07:54;;;;;;;13.27;4.18;;;14.20;99.90;;;;;;5081798;28;20197;-69
2023/05/18 05:10:22;;;;;;;8.13;3.88;;;14.40;99.90;;;;;;5042976;28;20690;-67
2023/05/18 05:12:50;;;;;;;9.32;4.18;;;14.40;99.90;;;;;;5062728;28;20675;-67
2023/05/18 05:15:18;;;;;;;10.05;3.70;;;15.00;99.90;;;;;;5054486;28;20190;-69
2023/05/18 05:17:46;;;;;;;9.75;3.60;;;15.20;99.90;;;;;;5068555;28;20284;-67
2023/05/18 05:20:14;;;;;;;12.88;3.55;;;15.80;99.90;;;;;;5066911;28;20561;-68
2023/05/18 05:22:41;;;;;;;10.82;4.13;;;16.20;99.90;;;;;;5070465;28;20214;-67
2023/05/18 05:25:11;;;;;;;9.90;4.25;;;16.20;99.90;;;;;;5071309;28;20194;-67
2023/05/18 05:27:38;;;;;;;8.38;4.28;;;16.40;99.90;;;;;;5050048;28;20198;-64
2023/05/18 05:30:06;;;;;;;10.52;4.93;;;16.80;99.90;;;;;;5046843;28;20193;-65
2023/05/18 05:32:35;;;;;;;7.55;3.58;;;17.20;99.90;;;;;;5067027;28;20259;-65
2023/05/18 05:35:04;;;;;;;7.75;3.45;;;17.20;99.90;;;;;;5060675;28;20680;-68
2023/05/18 05:37:34;;;;;;;11.20;5.28;;;16.10;99.90;;;;;;5057705;28;20234;-67
2023/05/18 05:40:04;;;;;;;12.90;6.97;;;15.80;99.90;;;;;;5045835;28;20199;-64
2023/05/18 05:42:36;;;;;;;11.07;6.15;;;16.80;99.90;;;;;;5066984;28;20210;-66
2023/05/18 05:45:03;;;;;;;19.05;11.20;;;17.40;99.90;;;;;;5062452;28;20197;-65
2023/05/18 05:47:33;;;;;;;11.05;7.45;;;18.30;99.90;;;;;;5073676;28;20725;-67
2023/05/18 05:50:00;;;;;;;11.00;4.53;;;18.20;99.90;;;;;;5063788;28;20221;-67
2023/05/18 05:52:27;;;;;;;10.07;5.53;;;18.00;99.90;;;;;;5058503;28;20195;-65
2023/05/18 05:54:55;;;;;;;8.95;2.97;;;17.40;99.90;;;;;;5065685;28;20202;-66
2023/05/18 05:57:22;;;;;;;11.88;3.65;;;17.00;99.90;;;;;;5072069;28;20195;-65
2023/05/18 05:59:50;;;;;;;8.25;3.90;;;17.60;99.90;;;;;;5065994;28;20191;-68
2023/05/18 06:02:17;;;;;;;10.63;3.60;;;18.10;99.90;;;;;;5065552;28;20263;-65
2023/05/18 06:04:44;;;;;;;8.43;3.00;;;18.40;99.90;;;;;;5043536;28;20591;-65
2023/05/18 06:07:11;;;;;;;9.90;3.03;;;19.30;99.90;;;;;;5048448;28;20210;-65
2023/05/18 06:09:39;;;;;;;6.63;2.80;;;18.10;99.90;;;;;;5034166;28;20190;-65
2023/05/18 06:12:06;;;;;;;7.28;3.20;;;17.90;99.90;;;;;;5053168;28;20206;-69
2023/05/18 06:14:33;;;;;;;10.32;2.97;;;18.70;99.90;;;;;;5045676;28;20193;-69
2023/05/18 06:17:01;;;;;;;4.35;2.35;;;19.90;99.90;;;;;;5066820;28;20200;-70
2023/05/18 06:19:28;;;;;;;8.52;2.63;;;19.40;99.90;;;;;;5043047;28;20249;-70
2023/05/18 06:21:55;;;;;;;8.55;3.08;;;20.00;99.90;;;;;;5056746;28;20226;-71
2023/05/18 06:24:24;;;;;;;8.57;3.10;;;21.10;99.90;;;;;;5052659;28;20200;-67
2023/05/18 06:27:23;;;;;;;6.22;2.45;;;21.20;99.90;;;;;;5046420;28;20228;-70
2023/05/18 06:30:09;;;;;;;10.70;2.85;;;20.60;99.90;;;;;;5059899;28;20209;-69
2023/05/18 06:32:56;;;;;;;6.93;3.13;;;21.10;99.90;;;;;;5046221;28;20665;-69
2023/05/18 06:35:25;;;;;;;6.00;2.60;;;21.00;99.90;;;;;;5045548;28;20291;-69
2023/05/18 06:37:52;;;;;;;8.30;3.10;;;22.70;99.90;;;;;;5064526;28;20207;-69
2023/05/18 06:40:19;;;;;;;5.63;2.65;;;21.10;99.90;;;;;;5048860;28;20299;-69
2023/05/18 06:42:46;;;;;;;6.65;2.72;;;21.10;99.90;;;;;;5047981;28;20235;-69
2023/05/18 06:45:39;;;;;;;7.18;2.92;;;21.30;99.90;;;;;;5036646;28;20286;-69
2023/05/18 06:48:29;;;;;;;9.18;2.70;;;21.40;99.90;;;;;;5053396;28;20235;-69
2023/05/18 06:50:56;;;;;;;8.02;2.42;;;23.50;99.90;;;;;;5039889;28;20278;-69
2023/05/18 06:53:23;;;;;;;9.38;3.42;;;24.40;99.90;;;;;;5047019;28;20257;-69
2023/05/18 06:55:50;;;;;;;7.03;2.72;;;23.60;99.90;;;;;;5049978;28;20198;-67
2023/05/18 06:58:17;;;;;;;6.95;2.50;;;24.50;99.90;;;;;;5042854;28;20676;-67
2023/05/18 07:00:45;;;;;;;7.43;2.58;;;24.60;99.90;;;;;;5031306;28;20210;-68
2023/05/18 07:03:11;;;;;;;7.40;2.60;;;23.30;99.90;;;;;;5032797;28;20219;-69
2023/05/18 07:05:39;;;;;;;5.63;2.90;;;23.10;99.90;;;;;;5079729;28;20266;-72
2023/05/18 07:08:06;;;;;;;11.20;2.38;;;23.00;99.90;;;;;;5067020;28;20199;-68
2023/05/18 07:10:34;;;;;;;9.23;2.78;;;22.80;99.90;;;;;;5079070;28;20536;-68
2023/05/18 07:13:01;;;;;;;5.82;2.45;;;23.00;99.90;;;;;;5088131;28;20190;-67
2023/05/18 07:15:28;;;;;;;10.00;2.72;;;22.40;99.90;;;;;;5087528;28;20195;-67
2023/05/18 07:17:56;;;;;;;7.18;2.78;;;22.40;99.90;;;;;;5083460;28;20202;-66
2023/05/18 07:20:23;;;;;;;7.63;3.00;;;23.80;99.90;;;;;;5056984;28;20209;-69
2023/05/18 07:22:54;;;;;;;9.93;2.85;;;22.00;99.90;;;;;;5082015;28;20210;-68
2023/05/18 07:25:21;;;;;;;6.80;2.58;;;22.70;99.90;;;;;;5080899;28;20187;-67
2023/05/18 07:27:50;;;;;;;8.80;3.10;;;23.00;99.90;;;;;;5081236;28;20660;-67
2023/05/18 07:30:17;;;;;;;6.32;2.30;;;22.50;99.90;;;;;;5063986;28;20194;-68
2023/05/18 07:32:45;;;;;;;7.78;2.55;;;23.80;99.90;;;;;;5066075;28;20248;-69
2023/05/18 07:35:12;;;;;;;7.50;2.85;;;25.90;99.90;;;;;;5069219;28;20202;-69
2023/05/18 07:37:39;;;;;;;7.70;2.90;;;25.90;99.90;;;;;;5082981;28;20277;-69
2023/05/18 07:40:08;;;;;;;8.55;2.60;;;25.40;99.90;;;;;;5079422;28;20584;-67
2023/05/18 07:42:36;;;;;;;6.07;2.63;;;25.10;99.90;;;;;;5065739;28;20202;-70
2023/05/18 07:45:04;;;;;;;8.48;2.65;;;24.80;99.90;;;;;;5078302;28;20201;-68
2023/05/18 07:47:31;;;;;;;8.35;2.95;;;23.30;99.90;;;;;;5065160;28;20195;-68
2023/05/18 07:49:58;;;;;;;9.05;2.70;;;24.40;99.90;;;;;;5076713;28;20194;-68
2023/05/18 07:52:25;;;;;;;7.80;2.80;;;25.00;99.90;;;;;;5080057;28;20203;-68
2023/05/18 07:54:53;;;;;;;6.85;2.30;;;25.60;99.90;;;;;;5080194;28;20452;-69
2023/05/18 07:57:20;;;;;;;7.68;2.88;;;26.40;99.90;;;;;;5079050;28;20246;-68
2023/05/18 07:59:47;;;;;;;7.95;2.83;;;26.20;99.90;;;;;;5081025;28;20194;-66
2023/05/18 08:02:16;;;;;;;8.55;2.90;;;24.20;99.90;;;;;;5077486;28;20214;-65
2023/05/18 08:04:43;;;;;;;7.85;3.17;;;25.30;99.90;;;;;;5060186;28;20231;-64
2023/05/18 08:07:11;;;;;;;7.97;2.65;;;24.20;99.90;;;;;;5077904;28;20191;-65
2023/05/18 08:09:39;;;;;;;8.13;3.05;;;25.30;99.90;;;;;;5078542;28;20292;-67
2023/05/18 08:12:07;;;;;;;9.00;3.10;;;25.60;99.90;;;;;;5083630;28;20570;-69
2023/05/18 08:14:34;;;;;;;8.13;2.72;;;26.90;99.90;;;;;;5077909;28;20187;-69
2023/05/18 08:17:03;;;;;;;8.70;2.78;;;26.00;99.90;;;;;;5086578;28;20682;-67
2023/05/18 08:19:30;;;;;;;10.55;3.40;;;26.00;99.90;;;;;;5087703;28;20247;-66
2023/05/18 08:21:58;;;;;;;5.45;2.55;;;26.90;99.90;;;;;;5069421;28;20279;-64
2023/05/18 08:24:25;;;;;;;6.03;2.60;;;27.20;99.90;;;;;;5088284;28;20198;-68
2023/05/18 08:26:52;;;;;;;11.35;3.00;;;25.10;99.90;;;;;;5059431;28;20230;-65
2023/05/18 08:29:19;;;;;;;7.03;2.58;;;24.30;99.90;;;;;;5060841;28;20198;-65
2023/05/18 08:31:46;;;;;;;8.05;2.65;;;23.80;99.90;;;;;;5087848;28;20720;-66
2023/05/18 08:34:15;;;;;;;6.90;2.70;;;23.40;99.90;;;;;;5084767;28;20243;-68
2023/05/18 08:36:44;;;;;;;9.27;2.92;;;23.40;99.90;;;;;;5084370;28;20233;-65
2023/05/18 08:39:14;;;;;;;7.32;3.05;;;24.50;99.90;;;;;;5085249;28;20277;-65
2023/05/18 08:42:03;;;;;;;8.90;3.35;;;25.20;99.90;;;;;;5068830;28;20217;-64
2023/05/18 08:44:39;;;;;;;8.10;3.08;;;23.70;99.90;;;;;;5083272;28;20245;-66
2023/05/18 08:47:14;;;;;;;8.65;2.75;;;22.30;99.90;;;;;;5077769;28;20663;-64
2023/05/18 08:49:41;;;;;;;7.20;3.08;;;24.00;99.90;;;;;;5051127;28;20270;-65
2023/05/18 08:52:09;;;;;;;6.38;2.45;;;24.30;99.90;;;;;;5055495;28;20252;-64
2023/05/18 08:54:37;;;;;;;5.28;2.70;;;25.10;99.90;;;;;;5081086;28;20199;-67
2023/05/18 08:57:10;;;;;;;9.63;3.08;;;23.60;99.90;;;;;;5083662;28;20728;-64
2023/05/18 08:59:42;;;;;;;9.32;3.30;;;22.50;99.90;;;;;;5078528;28;20201;-65
2023/05/18 09:02:09;;;;;;;7.82;2.90;;;21.80;99.90;;;;;;5079032;28;20297;-65
2023/05/18 09:04:37;;;;;;;8.40;3.25;;;22.70;99.90;;;;;;5078761;28;20226;-67
2023/05/18 09:07:06;;;;;;;9.82;3.42;;;23.10;99.90;;;;;;5076484;28;20255;-64
2023/05/18 09:09:34;;;;;;;9.32;3.30;;;24.70;99.90;;;;;;5083581;28;20190;-69
2023/05/18 09:12:02;;;;;;;8.30;2.92;;;23.70;99.90;;;;;;5059429;28;20282;-69
2023/05/18 09:14:32;;;;;;;6.78;2.65;;;24.60;99.90;;;;;;5074483;28;20206;-70
2023/05/18 09:17:00;;;;;;;6.82;2.88;;;25.30;99.90;;;;;;5061852;28;20217;-64
2023/05/18 09:19:27;;;;;;;6.47;3.08;;;25.80;99.90;;;;;;5079608;28;20199;-64
2023/05/18 09:21:54;;;;;;;12.00;3.03;;;24.30;99.90;;;;;;5067339;28;20217;-66
2023/05/18 09:24:21;;;;;;;9.23;3.33;;;24.00;99.90;;;;;;5083207;28;20209;-67
2023/05/18 09:26:50;;;;;;;10.75;3.47;;;26.10;99.90;;;;;;5082470;28;20803;-66
2023/05/18 09:29:19;;;;;;;7.43;3.00;;;25.90;99.90;;;;;;5087390;28;20189;-64
2023/05/18 09:31:47;;;;;;;9.27;2.95;;;27.50;99.90;;;;;;5082319;28;20232;-68
2023/05/18 09:34:15;;;;;;;7.10;3.10;;;23.60;99.90;;;;;;5086532;28;20710;-66
2023/05/18 09:36:48;;;;;;;8.27;3.45;;;24.00;99.90;;;;;;5086288;28;20195;-66
2023/05/18 09:39:15;;;;;;;10.07;3.17;;;23.30;99.90;;;;;;5086893;28;20191;-65
2023/05/18 09:41:42;;;;;;;11.27;4.05;;;20.70;99.90;;;;;;5080266;28;20244;-66
2023/05/18 09:44:11;;;;;;;9.18;3.78;;;20.60;99.90;;;;;;5080335;28;20663;-64
2023/05/18 09:46:39;;;;;;;11.90;3.17;;;22.30;99.90;;;;;;5066254;28;20874;-64
2023/05/18 09:49:07;;;;;;;5.43;2.80;;;22.60;99.90;;;;;;5085377;28;20221;-66
2023/05/18 09:51:35;;;;;;;9.25;3.10;;;22.90;99.90;;;;;;5087019;28;20199;-67
2023/05/18 09:54:05;;;;;;;7.63;3.33;;;22.70;99.90;;;;;;5078733;28;20216;-65
2023/05/18 09:56:35;;;;;;;10.52;3.50;;;22.30;99.90;;;;;;5082804;28;20608;-66
2023/05/18 09:59:11;;;;;;;7.45;3.00;;;21.50;99.90;;;;;;5084859;28;20190;-66
2023/05/18 10:02:01;;;;;;;9.18;3.20;;;21.70;99.90;;;;;;5047117;28;20186;-65
2023/05/18 10:04:42;;;;;;;9.98;3.05;;;21.60;99.90;;;;;;5081585;28;20309;-67
2023/05/18 10:07:14;;;;;;;10.73;3.60;;;22.40;99.90;;;;;;5077701;28;20261;-65
2023/05/18 10:09:43;;;;;;;10.57;3.20;;;21.70;99.90;;;;;;5069431;28;20193;-66
2023/05/18 10:12:17;;;;;;;8.07;3.08;;;21.80;99.90;;;;;;5070024;28;20199;-70
2023/05/18 10:14:45;;;;;;;11.50;3.50;;;23.10;99.90;;;;;;5079141;28;20675;-70
2023/05/18 10:17:12;;;;;;;9.18;3.10;;;21.00;99.90;;;;;;5087557;28;20218;-69
2023/05/18 10:19:43;;;;;;;7.97;3.30;;;19.60;99.90;;;;;;5073084;28;20193;-69
2023/05/18 10:22:18;;;;;;;8.63;3.05;;;20.60;99.90;;;;;;5087494;28;20206;-69
2023/05/18 10:24:50;;;;;;;7.88;3.13;;;20.40;99.90;;;;;;5053271;28;20190;-69
2023/05/18 10:27:25;;;;;;;9.90;3.25;;;19.70;99.90;;;;;;5067215;28;20206;-69
2023/05/18 10:29:54;;;;;;;6.65;3.10;;;21.40;99.90;;;;;;5085805;28;20752;-68
2023/05/18 10:32:24;;;;;;;10.90;3.83;;;21.10;99.90;;;;;;5091672;28;20190;-68
2023/05/18 10:34:55;;;;;;;8.10;3.42;;;19.40;99.90;;;;;;5061547;28;20305;-69
2023/05/18 10:37:23;;;;;;;11.57;3.50;;;20.60;99.90;;;;;;5068569;28;20202;-68
2023/05/18 10:39:51;;;;;;;8.52;3.42;;;20.80;99.90;;;;;;5081053;28;20191;-68
2023/05/18 10:42:18;;;;;;;13.68;4.95;;;22.00;99.90;;;;;;5079186;28;20214;-66
2023/05/18 10:44:46;;;;;;;16.08;5.85;;;23.40;99.90;;;;;;5083435;28;20244;-66
2023/05/18 10:47:14;;;;;;;13.82;5.78;;;24.00;99.90;;;;;;5078844;28;20187;-64
2023/05/18 10:49:48;;;;;;;11.77;4.32;;;23.40;99.90;;;;;;5074220;28;20273;-66
2023/05/18 10:52:20;;;;;;;13.48;4.85;;;20.90;99.90;;;;;;5060286;28;20225;-68
2023/05/18 10:54:48;;;;;;;8.60;3.72;;;23.00;99.90;;;;;;5069086;28;20194;-68
2023/05/18 10:57:18;;;;;;;8.68;3.22;;;21.90;99.90;;;;;;5063926;28;20193;-69
2023/05/18 10:59:46;;;;;;;12.52;4.10;;;21.40;99.90;;;;;;5090178;28;20194;-70
2023/05/18 11:02:17;;;;;;;10.77;4.15;;;20.00;99.90;;;;;;5081868;28;20632;-67
2023/05/18 11:04:49;;;;;;;9.82;3.63;;;19.10;99.90;;;;;;5070133;28;20251;-65
2023/05/18 11:07:20;;;;;;;7.97;3.15;;;19.70;99.90;;;;;;5067551;28;20194;-66
2023/05/18 11:09:48;;;;;;;12.25;4.10;;;19.20;99.90;;;;;;5084952;28;20259;-68
2023/05/18 11:12:16;;;;;;;12.73;6.20;;;18.60;99.90;;;;;;5068223;28;20186;-68
2023/05/18 11:14:53;;;;;;;9.75;4.68;;;19.20;99.90;;;;;;5081783;28;20201;-68
2023/05/18 11:17:25;;;;;;;10.80;3.50;;;19.80;99.90;;;;;;5067972;28;20752;-68
2023/05/18 11:20:07;;;;;;;10.32;4.22;;;19.20;99.90;;;;;;5077875;28;20186;-69
2023/05/18 11:22:57;;;;;;;9.63;4.68;;;20.00;99.90;;;;;;5088298;28;20342;-67
2023/05/18 11:25:26;;;;;;;8.90;4.40;;;20.80;99.90;;;;;;5067365;28;20194;-66
2023/05/18 11:28:12;;;;;;;8.23;3.28;;;22.10;99.90;;;;;;5086540;28;20201;-66
2023/05/18 11:30:39;;;;;;;10.15;3.40;;;22.50;99.90;;;;;;5080837;28;20217;-65
2023/05/18 11:33:21;;;;;;;6.45;2.80;;;21.60;99.90;;;;;;5081316;28;20205;-65
2023/05/18 11:36:07;;;;;;;8.57;3.45;;;20.70;99.90;;;;;;5051310;28;20199;-65
2023/05/18 11:38:44;;;;;;;11.68;4.15;;;21.70;99.90;;;;;;5082053;28;20826;-68
2023/05/18 11:41:35;;;;;;;8.35;3.63;;;22.20;99.90;;;;;;5066173;28;20206;-65
2023/05/18 11:44:24;;;;;;;10.05;3.80;;;21.30;99.90;;;;;;5049152;28;20214;-66
2023/05/18 11:47:00;;;;;;;9.25;3.35;;;20.50;99.90;;;;;;5062466;28;20356;-65
2023/05/18 11:49:47;;;;;;;7.78;3.10;;;21.60;99.90;;;;;;5083527;28;20243;-66
2023/05/18 11:52:19;;;;;;;6.72;3.13;;;22.30;99.90;;;;;;5085080;28;20186;-68
2023/05/18 11:54:50;;;;;;;8.38;3.20;;;21.60;99.90;;;;;;5082760;28;20297;-68
2023/05/18 11:57:19;;;;;;;9.85;3.78;;;20.30;99.90;;;;;;5075280;28;20261;-69
2023/05/18 11:59:47;;;;;;;5.95;2.80;;;20.40;99.90;;;;;;5070950;28;20202;-69
2023/05/18 12:02:21;;;;;;;8.85;3.17;;;18.60;99.90;;;;;;5062917;28;20190;-74
2023/05/18 12:04:51;;;;;;;10.85;2.55;;;19.70;99.90;;;;;;5074941;28;22127;-69
2023/05/18 12:07:19;;;;;;;8.43;3.10;;;21.40;99.90;;;;;;5085980;28;20189;-70
2023/05/18 12:09:47;;;;;;;7.57;3.08;;;20.80;99.90;;;;;;5062674;28;20209;-67
2023/05/18 12:12:18;;;;;;;8.13;3.13;;;19.80;99.90;;;;;;5074954;28;20205;-68
2023/05/18 12:14:56;;;;;;;8.80;2.97;;;19.50;99.90;;;;;;5073711;28;20191;-65
2023/05/18 12:17:41;;;;;;;7.00;3.08;;;19.30;99.90;;;;;;5064378;28;20678;-65
2023/05/18 12:20:17;;;;;;;9.18;3.30;;;20.10;99.90;;;;;;5081425;28;20228;-66
2023/05/18 12:22:50;;;;;;;8.23;3.20;;;21.00;99.90;;;;;;5062059;28;20679;-66
2023/05/18 12:25:23;;;;;;;6.38;2.55;;;19.60;99.90;;;;;;5085662;28;20214;-67
2023/05/18 12:27:51;;;;;;;7.88;2.70;;;19.70;99.90;;;;;;5074113;28;20276;-66
2023/05/18 12:30:21;;;;;;;8.27;3.10;;;19.70;99.90;;;;;;5084872;28;20212;-63
2023/05/18 12:32:54;;;;;;;10.23;2.90;;;19.60;99.90;;;;;;5054890;28;20303;-65
2023/05/18 12:35:22;;;;;;;6.60;2.67;;;19.50;99.90;;;;;;5068543;28;20708;-66
2023/05/18 12:37:50;;;;;;;8.32;3.28;;;19.70;99.90;;;;;;5079493;28;20273;-66
2023/05/18 12:40:18;;;;;;;7.75;3.00;;;18.90;99.90;;;;;;5051444;28;20558;-67
2023/05/18 12:42:53;;;;;;;10.82;3.40;;;19.10;99.90;;;;;;5084528;28;20723;-67
2023/05/18 12:45:23;;;;;;;7.95;2.78;;;18.90;99.90;;;;;;5081690;28;20186;-68
2023/05/18 12:47:53;;;;;;;6.75;3.00;;;18.40;99.90;;;;;;5061847;28;20195;-69
2023/05/18 12:50:24;;;;;;;6.07;2.95;;;18.00;99.90;;;;;;5068780;28;20186;-66
2023/05/18 12:52:51;;;;;;;8.68;3.47;;;18.30;99.90;;;;;;5070402;28;20237;-68
2023/05/18 12:55:23;;;;;;;10.38;3.33;;;18.30;99.90;;;;;;5069289;28;20204;-67
2023/05/18 12:58:17;;;;;;;9.75;3.47;;;17.90;99.90;;;;;;5082473;28;20202;-67
2023/05/18 13:00:46;;;;;;;8.95;2.97;;;17.60;99.90;;;;;;5072609;28;20199;-68